createdAt,value
2023-03-26T00:00:16.626Z,29.856
2023-03-26T00:05:16.741Z,29.860
2023-03-26T00:10:16.613Z,29.858
2023-03-26T00:15:19.600Z,29.855
2023-03-26T00:20:19.628Z,29.858
2023-03-26T00:25:16.634Z,29.863
2023-03-26T00:30:16.637Z,29.855
2023-03-26T00:35:16.638Z,29.856
2023-03-26T00:40:19.642Z,29.855
2023-03-26T00:45:19.637Z,29.851
2023-03-26T00:50:19.605Z,29.839
2023-03-26T00:55:19.621Z,29.828
2023-03-26T01:00:16.726Z,29.824
2023-03-26T01:05:19.659Z,29.820
2023-03-26T01:10:19.852Z,29.822
2023-03-26T01:15:16.473Z,29.830
2023-03-26T01:20:19.715Z,29.846
2023-03-26T01:25:16.680Z,29.852
2023-03-26T01:30:19.637Z,29.853
2023-03-26T01:35:19.841Z,29.846
2023-03-26T01:40:16.666Z,29.850
2023-03-26T01:45:19.729Z,29.829
2023-03-26T01:50:19.734Z,29.836
2023-03-26T01:55:16.656Z,29.838
2023-03-26T02:00:19.707Z,29.819
2023-03-26T02:05:16.675Z,29.820
2023-03-26T02:10:19.668Z,29.824
2023-03-26T02:15:16.646Z,29.814
2023-03-26T02:20:19.742Z,29.807
2023-03-26T02:25:16.739Z,29.805
2023-03-26T02:30:19.687Z,29.804
2023-03-26T02:35:31.846Z,29.798
2023-03-26T02:40:19.689Z,29.790
2023-03-26T02:45:16.739Z,29.783
2023-03-26T02:50:19.732Z,29.778
2023-03-26T02:55:19.684Z,29.771
2023-03-26T03:00:19.716Z,29.765
2023-03-26T03:05:16.679Z,29.761
2023-03-26T03:10:19.715Z,29.758
2023-03-26T03:15:16.799Z,29.756
2023-03-26T03:20:19.708Z,29.757
2023-03-26T03:25:19.684Z,29.756
2023-03-26T03:30:16.813Z,29.751
2023-03-26T03:35:19.777Z,29.754
2023-03-26T03:40:16.782Z,29.753
2023-03-26T03:45:19.719Z,29.747
2023-03-26T03:50:19.725Z,29.743
2023-03-26T03:55:16.545Z,29.734
2023-03-26T04:00:19.059Z,29.733
2023-03-26T04:05:15.983Z,29.732
2023-03-26T04:10:16.086Z,29.724
2023-03-26T04:15:19.072Z,29.722
2023-03-26T04:20:16.167Z,29.749
2023-03-26T04:25:19.063Z,29.754
2023-03-26T04:30:19.003Z,29.735
2023-03-26T04:35:16.051Z,29.693
2023-03-26T04:40:19.304Z,29.710
2023-03-26T04:45:19.280Z,29.676
2023-03-26T04:50:15.996Z,29.671
2023-03-26T04:55:19.020Z,29.665
2023-03-26T05:00:16.130Z,29.684
2023-03-26T05:05:19.017Z,29.705
2023-03-26T05:10:19.059Z,29.685
2023-03-26T05:15:16.043Z,29.683
2023-03-26T05:20:19.006Z,29.681
2023-03-26T05:25:16.004Z,29.674
2023-03-26T05:30:16.078Z,29.681
2023-03-26T05:35:19.053Z,29.675
2023-03-26T05:40:19.012Z,29.674
2023-03-26T05:45:19.076Z,29.668
2023-03-26T05:50:19.019Z,29.663
2023-03-26T05:55:19.011Z,29.665
2023-03-26T06:00:16.094Z,29.657
2023-03-26T06:05:19.076Z,29.654
2023-03-26T06:10:19.240Z,29.654
2023-03-26T06:15:16.122Z,29.667
2023-03-26T06:20:19.282Z,29.674
2023-03-26T06:25:19.036Z,29.676
2023-03-26T06:30:16.110Z,29.675
2023-03-26T06:35:19.075Z,29.678
2023-03-26T06:40:16.021Z,29.682
2023-03-26T06:45:15.891Z,29.687
2023-03-26T06:50:19.098Z,29.695
2023-03-26T06:55:19.058Z,29.695
2023-03-26T07:00:16.060Z,29.679
2023-03-26T07:05:16.135Z,29.681
2023-03-26T07:10:19.087Z,29.678
2023-03-26T07:15:16.124Z,29.678
2023-03-26T07:20:16.146Z,29.678
2023-03-26T07:25:16.132Z,29.677
2023-03-26T07:30:19.144Z,29.672
2023-03-26T07:35:16.241Z,29.665
2023-03-26T07:40:19.116Z,29.663
2023-03-26T07:45:19.077Z,29.653
2023-03-26T07:50:18.152Z,29.650
2023-03-26T07:55:19.170Z,29.647
2023-03-26T08:00:19.152Z,29.649
2023-03-26T08:05:19.151Z,29.651
2023-03-26T08:10:16.112Z,29.648
2023-03-26T08:15:19.115Z,29.644
2023-03-26T08:20:19.151Z,29.642
2023-03-26T08:25:16.169Z,29.644
2023-03-26T08:30:16.144Z,29.647
2023-03-26T08:35:16.189Z,29.644
2023-03-26T08:40:15.945Z,29.644
2023-03-26T08:45:19.114Z,29.643
2023-03-26T08:50:16.282Z,29.641
2023-03-26T08:55:16.153Z,29.641
2023-03-26T09:00:19.140Z,29.641
2023-03-26T09:05:19.117Z,29.643
2023-03-26T09:10:19.112Z,29.645
2023-03-26T09:15:19.175Z,29.644
2023-03-26T09:20:19.089Z,29.643
2023-03-26T09:25:19.168Z,29.646
2023-03-26T09:30:19.196Z,29.646
2023-03-26T09:35:16.296Z,29.644
2023-03-26T09:40:16.137Z,29.649
2023-03-26T09:45:16.367Z,29.657
2023-03-26T09:50:16.200Z,29.653
2023-03-26T09:55:19.198Z,29.652
2023-03-26T10:00:19.281Z,29.655
2023-03-26T10:05:19.155Z,29.654
2023-03-26T10:10:19.136Z,29.656
2023-03-26T10:15:16.219Z,29.659
2023-03-26T10:20:16.235Z,29.663
2023-03-26T10:25:19.199Z,29.660
2023-03-26T10:30:19.225Z,29.661
2023-03-26T10:35:19.182Z,29.665
2023-03-26T10:40:16.185Z,29.671
2023-03-26T10:45:16.171Z,29.676
2023-03-26T10:50:23.756Z,29.681
2023-03-26T10:55:19.145Z,29.688
2023-03-26T11:00:16.303Z,29.690
2023-03-26T11:05:19.208Z,29.692
2023-03-26T11:10:19.193Z,29.693
2023-03-26T11:15:19.190Z,29.695
2023-03-26T11:20:16.140Z,29.697
2023-03-26T11:25:19.352Z,29.698
2023-03-26T11:30:19.233Z,29.702
2023-03-26T11:35:16.262Z,29.706
2023-03-26T11:40:19.249Z,29.708
2023-03-26T11:45:16.306Z,29.711
2023-03-26T11:50:19.248Z,29.713
2023-03-26T11:55:16.331Z,29.715
2023-03-26T12:00:16.171Z,29.716
2023-03-26T12:05:16.238Z,29.720
2023-03-26T12:10:19.163Z,29.721
2023-03-26T12:15:16.300Z,29.724
2023-03-26T12:20:19.253Z,29.726
2023-03-26T12:25:19.246Z,29.726
2023-03-26T12:30:19.201Z,29.724
2023-03-26T12:35:19.272Z,29.725
2023-03-26T12:40:19.365Z,29.725
2023-03-26T12:45:19.259Z,29.727
2023-03-26T12:50:34.718Z,29.731
2023-03-26T12:55:19.273Z,29.734
2023-03-26T13:00:19.233Z,29.734
2023-03-26T13:05:16.252Z,29.739
2023-03-26T13:10:19.243Z,29.738
2023-03-26T13:15:19.297Z,29.738
2023-03-26T13:20:16.296Z,29.736
2023-03-26T13:25:19.246Z,29.741
2023-03-26T13:30:19.278Z,29.742
2023-03-26T13:35:19.312Z,29.742
2023-03-26T13:40:19.553Z,29.745
2023-03-26T13:45:19.268Z,29.748
2023-03-26T13:50:19.293Z,29.752
2023-03-26T13:55:19.242Z,29.750
2023-03-26T14:00:16.341Z,29.750
2023-03-26T14:05:16.286Z,29.752
2023-03-26T14:10:16.331Z,29.754
2023-03-26T14:15:16.327Z,29.756
2023-03-26T14:20:19.368Z,29.755
2023-03-26T14:25:16.354Z,29.754
2023-03-26T14:30:19.374Z,29.755
2023-03-26T14:35:16.343Z,29.750
2023-03-26T14:40:19.319Z,29.754
2023-03-26T14:45:19.304Z,29.758
2023-03-26T14:50:17.800Z,29.752
2023-03-26T14:55:19.416Z,29.754
2023-03-26T15:00:19.442Z,29.754
2023-03-26T15:05:16.311Z,29.754
2023-03-26T15:10:19.316Z,29.750
2023-03-26T15:15:16.368Z,29.751
2023-03-26T15:20:19.436Z,29.749
2023-03-26T15:25:19.290Z,29.753
2023-03-26T15:30:16.378Z,29.753
2023-03-26T15:35:19.556Z,29.750
2023-03-26T15:40:19.385Z,29.746
2023-03-26T15:45:16.410Z,29.748
2023-03-26T15:50:19.513Z,29.747
2023-03-26T15:55:16.427Z,29.749
2023-03-26T16:00:19.362Z,29.750
2023-03-26T16:05:16.395Z,29.750
2023-03-26T16:10:19.422Z,29.748
2023-03-26T16:15:19.371Z,29.747
2023-03-26T16:20:19.363Z,29.745
2023-03-26T16:25:27.223Z,29.748
2023-03-26T16:30:20.728Z,29.744
2023-03-26T16:35:19.334Z,29.746
2023-03-26T16:40:19.373Z,29.748
2023-03-26T16:45:16.404Z,29.746
2023-03-26T16:50:19.379Z,29.747
2023-03-26T16:55:16.416Z,29.745
2023-03-26T17:00:16.628Z,29.746
2023-03-26T17:05:19.359Z,29.743
2023-03-26T17:10:16.214Z,29.745
2023-03-26T17:15:19.377Z,29.742
2023-03-26T17:20:19.395Z,29.743
2023-03-26T17:25:19.359Z,29.742
2023-03-26T17:30:19.423Z,29.743
2023-03-26T17:35:16.481Z,29.741
2023-03-26T17:40:19.378Z,29.740
2023-03-26T17:45:19.396Z,29.741
2023-03-26T17:50:19.402Z,29.741
2023-03-26T17:55:16.430Z,29.737
2023-03-26T18:00:19.412Z,29.737
2023-03-26T18:05:16.462Z,29.737
2023-03-26T18:10:19.434Z,29.735
2023-03-26T18:15:19.404Z,29.736
2023-03-26T18:20:19.464Z,29.738
2023-03-26T18:25:16.432Z,29.738
2023-03-26T18:30:16.462Z,29.738
2023-03-26T18:35:16.466Z,29.740
2023-03-26T18:40:16.581Z,29.740
2023-03-26T18:45:19.497Z,29.741
2023-03-26T18:50:19.408Z,29.743
2023-03-26T18:55:19.410Z,29.743
2023-03-26T19:00:19.628Z,29.743
2023-03-26T19:05:16.474Z,29.748
2023-03-26T19:10:19.449Z,29.749
2023-03-26T19:15:19.411Z,29.748
2023-03-26T19:20:19.469Z,29.753
2023-03-26T19:25:19.425Z,29.754
2023-03-26T19:30:19.480Z,29.754
2023-03-26T19:35:19.461Z,29.756
2023-03-26T19:40:16.483Z,29.754
2023-03-26T19:45:19.541Z,29.755
2023-03-26T19:50:19.501Z,29.757
2023-03-26T19:55:19.482Z,29.756
2023-03-26T20:00:19.456Z,29.756
2023-03-26T20:05:19.459Z,29.757
2023-03-26T20:10:16.531Z,29.763
2023-03-26T20:15:19.422Z,29.762
2023-03-26T20:20:16.500Z,29.765
2023-03-26T20:25:26.030Z,29.766
2023-03-26T20:30:36.427Z,29.767
2023-03-26T20:35:16.602Z,29.768
2023-03-26T20:40:19.483Z,29.772
2023-03-26T20:45:16.510Z,29.772
2023-03-26T20:50:19.538Z,29.778
2023-03-26T20:55:16.534Z,29.779
2023-03-26T21:00:19.518Z,29.780
2023-03-26T21:05:16.484Z,29.784
2023-03-26T21:10:19.717Z,29.784
2023-03-26T21:15:23.341Z,29.783
2023-03-26T21:20:16.550Z,29.787
2023-03-26T21:25:19.507Z,29.788
2023-03-26T21:30:19.501Z,29.788
2023-03-26T21:35:19.671Z,29.792
2023-03-26T21:40:19.564Z,29.792
2023-03-26T21:45:16.559Z,29.793
2023-03-26T21:50:16.530Z,29.794
2023-03-26T21:55:19.523Z,29.796
2023-03-26T22:00:19.940Z,29.796
2023-03-26T22:05:16.581Z,29.800
2023-03-26T22:10:19.552Z,29.798
2023-03-26T22:15:19.501Z,29.799
2023-03-26T22:20:19.544Z,29.799
2023-03-26T22:25:19.484Z,29.799
2023-03-26T22:30:16.549Z,29.802
2023-03-26T22:35:16.623Z,29.804
2023-03-26T22:40:19.569Z,29.807
2023-03-26T22:45:19.516Z,29.809
2023-03-26T22:50:19.536Z,29.812
2023-03-26T22:55:28.962Z,29.812
2023-03-26T23:00:16.573Z,29.816
2023-03-26T23:05:19.677Z,29.816
2023-03-26T23:10:16.403Z,29.819
2023-03-26T23:15:19.590Z,29.821
2023-03-26T23:20:19.557Z,29.820
2023-03-26T23:25:16.647Z,29.827
2023-03-26T23:30:19.616Z,29.831
2023-03-26T23:35:19.646Z,29.834
2023-03-26T23:40:16.612Z,29.833
2023-03-26T23:45:19.688Z,29.836
2023-03-26T23:50:19.580Z,29.842
2023-03-26T23:55:19.580Z,29.846
